Flight Track Log - Related Links

Times and Time Zones

All times are in EDT time to prevent confusion due to time zone crossing. See the TYR111 flight status page for this flight to view local times or setup timezone preferences in your user account.

Time Position Orientation Groundspeed Altitude Reporting Facility
EDT Latitude Longitude Course Direction KTS MPH feet Rate Location/Type
Wed 01:10:00 AM 48.2876 13.5453 276° West  Level Estimated
Wed 01:11:00 AM 48.2947 13.3855 274° West  Level Estimated
Wed 01:12:00 AM 48.3016 13.2258 274° West  Level Estimated
Wed 01:13:00 AM 48.3083 13.0660 274° West  Level Estimated
Wed 01:14:00 AM 48.3147 12.9061 274° West  Level Estimated
Wed 01:15:00 AM 48.3210 12.7463 273° West  Level Estimated
Wed 01:16:00 AM 48.3270 12.5863 273° West  Level Estimated
Wed 01:17:00 AM 48.3328 12.4264 273° West  Level Estimated
Wed 01:18:00 AM 48.3384 12.2664 273° West  Level Estimated
Wed 01:19:00 AM 48.3437 12.1064 273° West  Level Estimated
Wed 01:20:00 AM 48.3489 11.9463 273° West  Level Estimated
Wed 01:21:00 AM 48.3538 11.7862 273° West  Level Estimated
Wed 01:22:00 AM 48.3538 11.7861 272° West  Level Estimated
Wed 01:23:00 AM 48.3538 11.7861 318° Northwest  Level Estimated
Wed 01:24:00 AM 48.3538 11.7861 318° Northwest  Level Estimated
Wed 01:25:00 AM 48.3538 11.7861 318° Northwest  Level Estimated
Wed 01:26:00 AM 48.3538 11.7861 318° Northwest  Level Estimated
Wed 01:27:00 AM 48.3538 11.7861 318° Northwest  Level Estimated
Wed 01:28:00 AM 48.3538 11.7861 318° Northwest  Level Estimated
Wed 01:29:00 AM 48.3538 11.7861 318° Northwest  Level Estimated
Wed 01:30:00 AM 48.3538 11.7861 318° Northwest  Level Estimated
Wed 01:31:00 AM 48.3538 11.7861 318° Northwest  Level Estimated
Wed 01:32:00 AM 48.3538 11.7861 318° Northwest  Level Estimated
Wed 01:33:00 AM 48.3538 11.7861 318° Northwest  Level Estimated
Wed 01:34:00 AM 48.3538 11.7861 318° Northwest  Level Estimated

Login

Don't have an account? Register now (free) for customized features, flight alerts, and more!